Time;durP1;ratioP1;P1;durP2;ratioP2;P2;SDS_P1;SDS_P2;PMS_P1;PMS_P2;Temp;Humidity;BMP_temperature;BMP_pressure;BME280_temperature;BME280_humidity;BME280_pressure;Samples;Min_cycle;Max_cycle;Signal;HPM_P1;HPM_P2
2021/10/21 00:02:16;;;;;;;5.90;5.30;;;17.40;1.00;;;;;;5073143;28;20473;-76
2021/10/21 00:04:44;;;;;;;5.30;4.80;;;17.40;1.00;;;;;;5065697;28;21295;-77
2021/10/21 00:07:11;;;;;;;6.27;5.00;;;17.40;1.00;;;;;;5069089;28;20499;-76
2021/10/21 00:09:37;;;;;;;5.17;4.57;;;17.40;1.00;;;;;;5064175;28;20449;-75
2021/10/21 00:12:05;;;;;;;6.10;5.50;;;17.30;1.00;;;;;;5069328;28;20914;-76
2021/10/21 00:14:32;;;;;;;6.43;5.47;;;17.30;1.00;;;;;;5067746;28;20512;-76
2021/10/21 00:16:58;;;;;;;5.50;5.00;;;17.30;1.00;;;;;;5069826;28;20481;-76
2021/10/21 00:19:25;;;;;;;5.67;5.10;;;17.30;1.00;;;;;;5065862;28;20459;-76
2021/10/21 00:21:54;;;;;;;5.17;4.57;;;17.30;1.00;;;;;;5070804;28;20453;-76
2021/10/21 00:24:20;;;;;;;7.23;6.00;;;17.20;1.00;;;;;;5070343;28;20585;-76
2021/10/21 00:26:48;;;;;;;5.70;5.10;;;17.20;1.00;;;;;;5068321;28;20467;-76
2021/10/21 00:29:14;;;;;;;5.80;5.30;;;17.20;1.00;;;;;;5067515;28;20462;-76
2021/10/21 00:31:41;;;;;;;5.73;5.23;;;17.20;1.00;;;;;;5062086;28;20462;-76
2021/10/21 00:34:08;;;;;;;5.90;5.40;;;17.20;1.00;;;;;;5071794;28;20471;-76
2021/10/21 00:36:34;;;;;;;6.50;5.07;;;17.20;1.00;;;;;;5070201;28;20454;-76
2021/10/21 00:39:02;;;;;;;5.97;5.40;;;17.20;1.00;;;;;;5061728;28;20441;-76
2021/10/21 00:41:29;;;;;;;5.77;4.90;;;17.20;1.00;;;;;;5063089;28;21429;-76
2021/10/21 00:44:06;;;;;;;8.90;5.13;;;17.20;1.00;;;;;;5067869;28;20442;-77
2021/10/21 00:46:32;;;;;;;5.70;5.20;;;17.20;1.00;;;;;;5067259;28;20461;-77
2021/10/21 00:48:59;;;;;;;5.47;4.97;;;17.10;1.00;;;;;;5066483;28;20458;-76
2021/10/21 00:51:26;;;;;;;5.63;5.13;;;17.10;1.00;;;;;;5074595;28;20470;-76
2021/10/21 00:53:53;;;;;;;6.17;5.67;;;17.10;1.00;;;;;;5068144;28;20445;-77
2021/10/21 00:56:21;;;;;;;6.50;5.47;;;17.10;1.00;;;;;;5068804;28;21407;-77
2021/10/21 00:58:50;;;;;;;7.03;6.33;;;17.10;1.00;;;;;;5067100;28;20470;-77
2021/10/21 01:01:17;;;;;;;6.13;5.13;;;17.10;1.00;;;;;;5067096;28;20504;-77
2021/10/21 01:03:43;;;;;;;6.07;5.13;;;17.10;1.00;;;;;;5067005;28;21082;-77
2021/10/21 01:06:11;;;;;;;7.90;5.67;;;17.10;1.00;;;;;;5067257;28;20513;-77
2021/10/21 01:08:38;;;;;;;5.97;5.40;;;17.00;1.00;;;;;;5070439;28;20451;-76
2021/10/21 01:11:05;;;;;;;5.07;4.53;;;17.00;1.00;;;;;;5064461;28;20456;-77
2021/10/21 01:13:33;;;;;;;5.60;4.90;;;17.10;1.00;;;;;;5073410;28;20434;-77
2021/10/21 01:16:04;;;;;;;5.97;5.17;;;17.10;1.00;;;;;;5065745;28;20485;-76
2021/10/21 01:18:30;;;;;;;5.80;5.27;;;17.00;1.00;;;;;;5070768;28;20454;-77
2021/10/21 01:20:59;;;;;;;5.20;4.70;;;17.00;1.00;;;;;;5065598;28;20455;-77
2021/10/21 01:23:26;;;;;;;5.23;4.70;;;17.00;1.00;;;;;;5074237;28;20442;-77
2021/10/21 01:25:53;;;;;;;5.67;5.10;;;17.00;1.00;;;;;;5063045;28;20479;-77
2021/10/21 01:28:20;;;;;;;7.53;4.80;;;17.00;1.00;;;;;;5067307;28;20557;-77
2021/10/21 01:30:47;;;;;;;5.37;4.83;;;17.00;1.00;;;;;;5068723;28;20458;-77
2021/10/21 01:33:14;;;;;;;5.80;5.20;;;17.00;1.00;;;;;;5068408;28;20939;-77
2021/10/21 01:35:41;;;;;;;5.40;4.80;;;17.00;1.00;;;;;;5073371;28;20497;-77
2021/10/21 01:38:09;;;;;;;6.13;5.47;;;17.00;1.00;;;;;;5067948;28;24515;-77
2021/10/21 01:40:36;;;;;;;5.53;5.10;;;17.00;1.00;;;;;;5069561;28;20461;-77
2021/10/21 01:43:03;;;;;;;6.00;5.40;;;17.00;1.00;;;;;;5069370;28;20547;-76
2021/10/21 01:45:32;;;;;;;5.07;4.67;;;17.00;1.00;;;;;;5069326;28;20472;-77
2021/10/21 01:48:01;;;;;;;4.60;4.20;;;17.00;1.00;;;;;;5067473;28;20486;-77
2021/10/21 01:50:29;;;;;;;5.20;4.80;;;17.00;1.00;;;;;;5073790;28;20465;-76
2021/10/21 01:52:56;;;;;;;5.17;4.67;;;17.00;1.00;;;;;;5074989;28;21291;-77
2021/10/21 01:55:24;;;;;;;4.80;4.10;;;17.00;1.00;;;;;;5070244;28;20486;-77
2021/10/21 01:57:52;;;;;;;4.60;4.20;;;17.00;1.00;;;;;;5069791;28;20485;-77
2021/10/21 02:00:20;;;;;;;5.50;5.00;;;17.00;1.00;;;;;;5067472;28;20491;-77
2021/10/21 02:02:48;;;;;;;5.20;4.80;;;17.00;1.00;;;;;;5071483;28;21154;-77
2021/10/21 02:05:17;;;;;;;6.53;4.77;;;17.10;1.00;;;;;;5069413;28;20462;-77
2021/10/21 02:07:44;;;;;;;4.90;4.40;;;17.10;1.00;;;;;;5069956;28;21567;-77
2021/10/21 02:10:12;;;;;;;4.73;3.90;;;17.10;1.00;;;;;;5069860;28;20542;-77
2021/10/21 02:12:40;;;;;;;5.60;3.47;;;17.10;1.00;;;;;;5068919;28;20437;-77
2021/10/21 02:15:08;;;;;;;3.47;3.17;;;17.20;1.00;;;;;;5072787;28;20988;-77
2021/10/21 02:17:34;;;;;;;3.37;3.07;;;17.30;1.00;;;;;;5069243;28;20462;-77
2021/10/21 02:20:01;;;;;;;5.23;3.10;;;17.30;1.00;;;;;;5074938;28;20542;-77
2021/10/21 02:22:28;;;;;;;3.80;3.27;;;17.30;1.00;;;;;;5063596;28;20441;-76
2021/10/21 02:24:55;;;;;;;4.57;3.17;;;17.40;1.00;;;;;;5071906;28;20534;-76
2021/10/21 02:27:22;;;;;;;3.77;3.43;;;17.40;1.00;;;;;;5069234;28;21659;-76
2021/10/21 02:29:50;;;;;;;3.43;3.13;;;17.40;1.00;;;;;;5072736;28;20451;-77
2021/10/21 02:32:17;;;;;;;3.17;2.57;;;17.40;1.00;;;;;;5067286;28;20437;-77
2021/10/21 02:34:43;;;;;;;5.00;3.20;;;17.40;1.00;;;;;;5072640;28;20423;-76
2021/10/21 02:37:10;;;;;;;2.90;2.57;;;17.40;1.00;;;;;;5069259;28;20455;-77
2021/10/21 02:39:37;;;;;;;2.97;2.40;;;17.40;1.00;;;;;;5067055;28;21003;-77
2021/10/21 02:42:03;;;;;;;2.80;2.60;;;17.40;1.00;;;;;;5069719;28;20461;-76
2021/10/21 02:44:31;;;;;;;3.47;2.60;;;17.40;1.00;;;;;;5069708;28;20453;-76
2021/10/21 02:46:59;;;;;;;3.47;2.40;;;17.40;1.00;;;;;;5070874;28;20465;-76
2021/10/21 02:49:25;;;;;;;4.20;2.63;;;17.40;1.00;;;;;;5069324;28;21055;-77
2021/10/21 02:51:52;;;;;;;3.17;2.20;;;17.40;1.00;;;;;;5070403;28;21266;-76
2021/10/21 02:54:19;;;;;;;4.00;2.50;;;17.30;1.00;;;;;;5074101;28;20457;-76
2021/10/21 02:56:45;;;;;;;4.83;2.70;;;17.30;1.00;;;;;;5084708;28;20458;-77
2021/10/21 02:59:12;;;;;;;5.63;3.17;;;17.30;1.00;;;;;;5068911;28;20446;-77
2021/10/21 03:01:39;;;;;;;3.47;2.90;;;17.30;1.00;;;;;;5068569;28;20457;-76
2021/10/21 03:04:07;;;;;;;2.80;2.20;;;17.30;1.00;;;;;;5075559;28;20435;-76
2021/10/21 03:06:33;;;;;;;3.33;2.50;;;17.20;1.00;;;;;;5069306;28;20957;-77
2021/10/21 03:09:00;;;;;;;3.13;2.80;;;17.20;1.00;;;;;;5070624;28;20499;-76
2021/10/21 03:11:26;;;;;;;3.80;2.57;;;17.20;1.00;;;;;;5066296;28;20755;-76
2021/10/21 03:13:53;;;;;;;3.70;2.70;;;17.20;1.00;;;;;;5068569;28;20469;-76
2021/10/21 03:16:20;;;;;;;3.43;3.13;;;17.20;1.00;;;;;;5067311;28;20578;-76
2021/10/21 03:18:46;;;;;;;3.47;2.80;;;17.20;1.00;;;;;;5067075;28;20962;-76
2021/10/21 03:21:14;;;;;;;3.57;2.80;;;17.20;1.00;;;;;;5068305;28;20449;-76
2021/10/21 03:23:41;;;;;;;3.77;2.60;;;17.20;1.00;;;;;;5073413;28;21587;-76
2021/10/21 03:26:07;;;;;;;3.07;2.77;;;17.10;1.00;;;;;;5080948;28;20413;-76
2021/10/21 03:28:34;;;;;;;3.10;2.53;;;17.20;1.00;;;;;;5066080;28;21993;-76
2021/10/21 03:31:01;;;;;;;3.20;2.77;;;17.10;1.00;;;;;;5070424;28;20501;-76
2021/10/21 03:33:27;;;;;;;3.87;2.40;;;17.20;1.00;;;;;;5064712;28;20446;-76
2021/10/21 03:35:54;;;;;;;4.20;2.73;;;17.20;1.00;;;;;;5073962;28;20435;-75
2021/10/21 03:38:22;;;;;;;3.07;2.40;;;17.10;1.00;;;;;;5064045;28;20471;-76
2021/10/21 03:40:48;;;;;;;3.03;2.70;;;17.10;1.00;;;;;;5070698;28;20435;-76
2021/10/21 03:43:15;;;;;;;3.83;3.00;;;17.10;1.00;;;;;;5067597;28;21068;-76
2021/10/21 03:45:42;;;;;;;2.80;2.60;;;17.10;1.00;;;;;;5069232;28;21601;-76
2021/10/21 03:48:09;;;;;;;3.30;3.00;;;17.10;1.00;;;;;;5067605;28;21331;-76
2021/10/21 03:50:35;;;;;;;3.90;2.70;;;17.20;1.00;;;;;;5072383;28;20435;-76
2021/10/21 03:53:02;;;;;;;2.63;2.40;;;17.20;1.00;;;;;;5066471;28;21413;-76
2021/10/21 03:55:30;;;;;;;2.47;2.10;;;17.20;1.00;;;;;;5065588;28;21029;-76
2021/10/21 03:57:57;;;;;;;2.63;2.43;;;17.20;1.00;;;;;;5071193;28;20485;-76
2021/10/21 04:00:24;;;;;;;2.70;2.37;;;17.20;1.00;;;;;;5066653;28;20493;-76
2021/10/21 04:02:50;;;;;;;2.63;2.20;;;17.20;1.00;;;;;;5070440;28;20451;-76
2021/10/21 04:05:18;;;;;;;3.13;2.07;;;17.20;1.00;;;;;;5070038;28;20454;-76
2021/10/21 04:07:45;;;;;;;2.83;1.90;;;17.20;1.00;;;;;;5064892;28;20465;-76
2021/10/21 04:10:11;;;;;;;2.60;1.67;;;17.30;1.00;;;;;;5070655;28;20624;-76
2021/10/21 04:12:39;;;;;;;5.47;2.00;;;17.30;1.00;;;;;;5071961;28;20462;-76
2021/10/21 04:15:07;;;;;;;2.57;1.77;;;17.30;1.00;;;;;;5068869;28;20557;-75
2021/10/21 04:17:34;;;;;;;3.10;1.80;;;17.30;1.00;;;;;;5067036;28;21148;-77
2021/10/21 04:20:01;;;;;;;2.87;1.80;;;17.30;1.00;;;;;;5072687;28;20453;-77
2021/10/21 04:22:27;;;;;;;2.43;1.50;;;17.10;1.00;;;;;;5070703;28;20946;-77
2021/10/21 04:24:54;;;;;;;3.30;2.60;;;16.80;1.00;;;;;;5066615;28;20505;-77
2021/10/21 04:27:21;;;;;;;4.40;1.80;;;16.40;1.00;;;;;;5069316;28;21026;-77
2021/10/21 04:29:49;;;;;;;1.90;1.60;;;16.00;1.00;;;;;;5066465;28;20441;-77
2021/10/21 04:32:16;;;;;;;3.40;1.70;;;15.50;1.00;;;;;;5065903;28;20442;-77
2021/10/21 04:34:42;;;;;;;2.63;1.53;;;15.10;1.00;;;;;;5066885;28;20458;-77
2021/10/21 04:37:09;;;;;;;2.70;1.70;;;14.80;1.00;;;;;;5073260;28;20460;-77
2021/10/21 04:39:36;;;;;;;2.60;1.27;;;14.70;1.00;;;;;;5066506;28;20447;-78
2021/10/21 04:42:03;;;;;;;2.53;1.57;;;14.50;1.00;;;;;;5075059;28;20436;-77
2021/10/21 04:44:30;;;;;;;3.07;1.50;;;14.40;1.00;;;;;;5065013;28;20464;-78
2021/10/21 04:46:58;;;;;;;6.17;1.53;;;14.30;1.00;;;;;;5071728;28;20467;-77
2021/10/21 04:49:25;;;;;;;2.83;1.43;;;14.10;1.00;;;;;;5066483;28;20531;-77
2021/10/21 04:51:52;;;;;;;2.60;1.40;;;14.10;1.00;;;;;;5068123;28;20455;-77
2021/10/21 04:54:18;;;;;;;2.30;1.60;;;14.00;1.00;;;;;;5073316;28;20489;-77
2021/10/21 04:56:45;;;;;;;2.20;1.30;;;14.00;1.00;;;;;;5080647;28;20467;-76
2021/10/21 04:59:12;;;;;;;4.03;2.13;;;14.00;1.00;;;;;;5075265;28;21315;-77
2021/10/21 05:01:38;;;;;;;2.00;1.47;;;13.90;1.00;;;;;;5067227;28;23285;-77
2021/10/21 05:04:06;;;;;;;2.40;1.30;;;14.00;1.00;;;;;;5069142;28;20436;-76
2021/10/21 05:06:33;;;;;;;2.47;1.60;;;13.90;1.00;;;;;;5070502;28;20518;-77
2021/10/21 05:09:00;;;;;;;3.30;1.50;;;13.90;1.00;;;;;;5073794;28;20450;-77
2021/10/21 05:11:26;;;;;;;3.77;2.03;;;13.90;1.00;;;;;;5070661;28;21267;-77
2021/10/21 05:13:53;;;;;;;2.13;1.27;;;13.90;1.00;;;;;;5074769;28;20459;-77
2021/10/21 05:16:19;;;;;;;2.93;1.60;;;13.90;1.00;;;;;;5070093;28;20471;-76
2021/10/21 05:18:46;;;;;;;4.23;1.57;;;13.90;1.00;;;;;;5068872;28;20456;-77
2021/10/21 05:21:14;;;;;;;2.37;1.43;;;13.90;1.00;;;;;;5069816;28;20457;-76
2021/10/21 05:23:41;;;;;;;2.70;1.70;;;13.90;1.00;;;;;;5073903;28;20470;-77
2021/10/21 05:26:07;;;;;;;3.10;1.87;;;13.90;1.00;;;;;;5068674;28;20970;-78
2021/10/21 05:28:34;;;;;;;2.30;1.20;;;14.00;1.00;;;;;;5068058;28;20546;-77
2021/10/21 05:31:01;;;;;;;2.60;1.60;;;14.00;1.00;;;;;;5072162;28;20467;-77
2021/10/21 05:33:29;;;;;;;2.83;1.50;;;14.10;1.00;;;;;;5065743;28;20474;-77
2021/10/21 05:35:56;;;;;;;2.90;1.70;;;14.20;1.00;;;;;;5068889;28;20470;-76
2021/10/21 05:38:24;;;;;;;2.50;2.00;;;14.30;1.00;;;;;;5068037;28;21036;-77
2021/10/21 05:40:51;;;;;;;2.87;1.63;;;14.40;1.00;;;;;;5069940;28;20447;-75
2021/10/21 05:43:18;;;;;;;4.10;2.00;;;14.50;1.00;;;;;;5070401;28;20559;-76
2021/10/21 05:45:45;;;;;;;2.23;1.43;;;14.50;1.00;;;;;;5065129;28;20467;-76
2021/10/21 05:48:13;;;;;;;3.20;1.70;;;14.60;1.00;;;;;;5078000;28;20457;-75
2021/10/21 05:50:39;;;;;;;2.90;1.63;;;14.60;1.00;;;;;;5079162;28;20431;-77
2021/10/21 05:53:06;;;;;;;3.03;1.67;;;14.80;1.00;;;;;;5074439;28;20582;-76
2021/10/21 05:55:34;;;;;;;1.60;1.13;;;14.80;1.00;;;;;;5071182;28;20464;-76
2021/10/21 05:58:01;;;;;;;2.70;1.50;;;14.80;1.00;;;;;;5075544;28;20451;-76
2021/10/21 06:00:27;;;;;;;2.90;1.50;;;15.00;1.00;;;;;;5070565;28;21056;-75
2021/10/21 06:02:54;;;;;;;2.00;1.30;;;15.10;1.00;;;;;;5071924;28;20451;-77
2021/10/21 06:05:22;;;;;;;1.93;1.40;;;15.20;1.00;;;;;;5071051;28;20549;-75
2021/10/21 06:07:49;;;;;;;5.83;2.17;;;15.30;1.00;;;;;;5075263;28;20455;-78
2021/10/21 06:10:16;;;;;;;2.93;1.43;;;15.40;1.00;;;;;;5071580;28;21225;-75
2021/10/21 06:12:50;;;;;;;2.97;1.57;;;15.50;1.00;;;;;;5068961;28;20546;-76
2021/10/21 06:15:18;;;;;;;3.37;1.30;;;15.50;1.00;;;;;;5070510;28;20603;-76
2021/10/21 06:17:45;;;;;;;2.13;1.30;;;15.60;1.00;;;;;;5065917;28;20549;-76
2021/10/21 06:20:14;;;;;;;1.90;1.20;;;15.60;1.00;;;;;;5068231;28;20558;-76
2021/10/21 06:22:41;;;;;;;4.03;1.80;;;15.60;1.00;;;;;;5067176;28;20464;-77
2021/10/21 06:25:10;;;;;;;2.10;1.33;;;15.80;1.00;;;;;;5071025;28;20457;-77
2021/10/21 06:27:38;;;;;;;2.80;1.63;;;15.90;1.00;;;;;;5071378;28;20445;-77
2021/10/21 06:30:07;;;;;;;3.63;1.80;;;16.00;1.00;;;;;;5067583;28;21813;-77
2021/10/21 06:32:34;;;;;;;1.90;1.07;;;16.10;1.00;;;;;;5072570;28;20465;-77
2021/10/21 06:35:01;;;;;;;2.10;1.30;;;16.20;1.00;;;;;;5066747;28;20449;-77
2021/10/21 06:37:30;;;;;;;4.03;1.63;;;16.30;1.00;;;;;;5067128;28;20452;-77
2021/10/21 06:39:57;;;;;;;2.13;1.40;;;16.40;1.00;;;;;;5070685;28;20970;-77
2021/10/21 06:42:25;;;;;;;1.83;1.20;;;16.40;1.00;;;;;;5069483;28;25586;-77
2021/10/21 06:44:52;;;;;;;2.37;1.30;;;16.50;1.00;;;;;;5070018;28;20466;-77
2021/10/21 06:47:20;;;;;;;5.17;1.67;;;16.50;1.00;;;;;;5072120;28;20454;-76
2021/10/21 06:49:46;;;;;;;4.07;1.30;;;16.50;1.00;;;;;;5076314;28;20446;-76
2021/10/21 06:52:13;;;;;;;1.77;1.20;;;16.60;1.00;;;;;;5074597;28;20447;-77
2021/10/21 06:54:40;;;;;;;2.30;1.30;;;16.60;1.00;;;;;;5081180;28;20426;-77
2021/10/21 06:57:07;;;;;;;2.63;1.43;;;16.60;1.00;;;;;;5070974;28;20559;-76
2021/10/21 06:59:34;;;;;;;2.07;1.37;;;16.60;1.00;;;;;;5072313;28;20443;-76
2021/10/21 07:02:00;;;;;;;3.70;1.30;;;16.70;1.00;;;;;;5065832;28;20543;-76
2021/10/21 07:04:29;;;;;;;3.53;1.50;;;16.70;1.00;;;;;;5074286;28;20432;-76
2021/10/21 07:06:57;;;;;;;2.53;1.10;;;16.70;1.00;;;;;;5068355;28;20445;-76
2021/10/21 07:09:23;;;;;;;2.23;1.00;;;16.60;1.00;;;;;;5069462;28;20458;-75
2021/10/21 07:11:50;;;;;;;2.20;1.03;;;16.60;1.00;;;;;;5067645;28;21334;-78
2021/10/21 07:14:17;;;;;;;6.87;1.80;;;16.60;1.00;;;;;;5070103;28;20470;-76
2021/10/21 07:16:43;;;;;;;2.80;1.57;;;16.50;1.00;;;;;;5069176;28;20919;-76
2021/10/21 07:19:11;;;;;;;2.10;1.17;;;16.40;1.00;;;;;;5069317;28;20445;-76
2021/10/21 07:21:39;;;;;;;5.73;1.47;;;16.30;1.00;;;;;;5068919;28;20448;-77
2021/10/21 07:24:06;;;;;;;3.30;1.20;;;16.30;1.00;;;;;;5066506;28;20465;-76
2021/10/21 07:26:33;;;;;;;2.40;1.00;;;16.20;1.00;;;;;;5068939;28;20461;-76
2021/10/21 07:29:00;;;;;;;3.10;1.00;;;16.10;1.00;;;;;;5068335;28;20556;-77
2021/10/21 07:31:26;;;;;;;3.10;1.30;;;16.00;1.00;;;;;;5070593;28;20556;-77
2021/10/21 07:33:53;;;;;;;4.37;1.37;;;15.90;1.00;;;;;;5071269;28;20456;-76
2021/10/21 07:36:22;;;;;;;3.73;0.90;;;15.90;1.00;;;;;;5071104;28;20473;-77
2021/10/21 07:38:50;;;;;;;3.67;1.00;;;15.90;1.00;;;;;;5069810;28;20480;-76
2021/10/21 07:41:18;;;;;;;4.67;1.20;;;15.90;1.00;;;;;;5067889;28;20574;-76
2021/10/21 07:43:46;;;;;;;6.47;1.90;;;16.00;1.00;;;;;;5069272;28;20465;-77
2021/10/21 07:46:12;;;;;;;5.47;1.60;;;16.00;1.00;;;;;;5065059;28;20529;-77
2021/10/21 07:48:39;;;;;;;4.43;1.40;;;16.00;1.00;;;;;;5073021;28;20448;-76
2021/10/21 07:51:05;;;;;;;3.80;1.67;;;16.10;1.00;;;;;;5074086;28;20445;-75
2021/10/21 07:53:32;;;;;;;4.17;1.20;;;16.10;1.00;;;;;;5079424;28;21847;-76
2021/10/21 07:56:01;;;;;;;5.30;1.10;;;16.20;1.00;;;;;;5078864;28;20478;-77
2021/10/21 07:58:28;;;;;;;2.23;1.33;;;16.20;1.00;;;;;;5068015;28;20450;-76
2021/10/21 08:00:55;;;;;;;4.20;1.33;;;16.20;1.00;;;;;;5071994;28;20983;-77
2021/10/21 08:03:21;;;;;;;4.53;1.43;;;16.30;1.00;;;;;;5069075;28;20461;-78
2021/10/21 08:05:48;;;;;;;2.83;0.93;;;16.30;1.00;;;;;;5076364;28;20445;-77
2021/10/21 08:08:15;;;;;;;7.60;1.40;;;16.30;1.00;;;;;;5077346;28;20871;-77
2021/10/21 08:10:42;;;;;;;6.80;1.43;;;16.40;1.00;;;;;;5074116;28;20527;-77
2021/10/21 08:13:11;;;;;;;6.33;1.03;;;16.40;1.00;;;;;;5070687;28;20455;-78
2021/10/21 08:15:38;;;;;;;17.83;1.47;;;16.50;1.00;;;;;;5072136;28;20545;-76
2021/10/21 08:18:05;;;;;;;3.80;0.90;;;16.60;1.00;;;;;;5066180;28;20476;-77
2021/10/21 08:20:32;;;;;;;6.47;1.77;;;16.80;1.00;;;;;;5076953;28;20919;-77
2021/10/21 08:22:58;;;;;;;2.70;1.00;;;17.00;1.00;;;;;;5079667;28;20454;-76
2021/10/21 08:25:25;;;;;;;6.00;0.97;;;17.10;1.00;;;;;;5071616;28;20450;-77
2021/10/21 08:27:53;;;;;;;10.87;1.13;;;17.10;1.00;;;;;;5067331;28;20529;-76
2021/10/21 08:30:24;;;;;;;5.43;1.13;;;17.10;1.00;;;;;;5067323;28;20520;-77
2021/10/21 08:32:54;;;;;;;6.20;1.17;;;17.30;1.00;;;;;;5068244;28;20454;-77
2021/10/21 08:35:21;;;;;;;7.23;0.90;;;17.40;1.00;;;;;;5069059;28;20445;-77
2021/10/21 08:37:48;;;;;;;5.57;1.00;;;17.30;1.00;;;;;;5069206;28;20592;-76
2021/10/21 08:40:15;;;;;;;4.70;0.90;;;17.10;1.00;;;;;;5069490;28;20444;-76
2021/10/21 08:42:43;;;;;;;5.57;1.00;;;17.00;1.00;;;;;;5069710;28;20556;-77
2021/10/21 08:45:10;;;;;;;4.57;0.80;;;16.90;1.00;;;;;;5069955;28;20459;-77
2021/10/21 08:47:41;;;;;;;4.00;1.23;;;16.80;1.00;;;;;;5066096;28;20566;-77
2021/10/21 08:50:08;;;;;;;5.60;1.50;;;16.80;1.00;;;;;;5073106;28;20450;-77
2021/10/21 08:52:35;;;;;;;5.50;1.73;;;16.80;1.00;;;;;;5067584;28;20535;-77
2021/10/21 08:55:02;;;;;;;3.27;0.90;;;16.60;1.00;;;;;;5072787;28;21628;-77
2021/10/21 08:57:28;;;;;;;8.37;1.07;;;16.60;1.00;;;;;;5067622;28;20488;-77
2021/10/21 08:59:56;;;;;;;8.73;1.10;;;16.50;1.00;;;;;;5069053;28;21427;-75
2021/10/21 09:02:25;;;;;;;5.60;1.60;;;16.50;1.00;;;;;;5065564;28;21350;-76
2021/10/21 09:05:08;;;;;;;3.40;1.30;;;16.70;1.00;;;;;;5070273;28;21429;-77
2021/10/21 09:10:20;;;;;;;7.47;1.67;;;16.60;1.00;;;;;;5067449;28;20465;-77
2021/10/21 09:12:48;;;;;;;2.80;0.80;;;16.70;1.00;;;;;;5067261;28;20457;-77
2021/10/21 09:15:16;;;;;;;5.63;0.97;;;16.60;1.00;;;;;;5067367;28;20457;-78
2021/10/21 09:17:44;;;;;;;6.60;1.17;;;16.60;1.00;;;;;;5067520;28;21448;-77
2021/10/21 09:20:37;;;;;;;7.83;1.20;;;16.40;1.00;;;;;;5061411;28;20451;-77
2021/10/21 09:23:06;;;;;;;3.90;1.27;;;16.30;1.00;;;;;;5062673;28;20461;-77
2021/10/21 09:25:35;;;;;;;4.97;1.00;;;16.30;1.00;;;;;;5069007;28;20440;-77
2021/10/21 09:28:03;;;;;;;5.17;0.80;;;16.30;1.00;;;;;;5066062;28;21441;-77
2021/10/21 09:30:31;;;;;;;2.80;1.10;;;16.20;1.00;;;;;;5070780;28;20465;-77
2021/10/21 09:33:03;;;;;;;3.47;1.17;;;16.20;1.00;;;;;;5066878;28;20464;-77
2021/10/21 09:35:34;;;;;;;6.87;1.13;;;16.20;1.00;;;;;;5071735;28;20477;-79
2021/10/21 09:38:02;;;;;;;4.67;1.40;;;16.20;1.00;;;;;;5070079;28;20464;-76
2021/10/21 09:40:34;;;;;;;6.80;1.00;;;16.20;1.00;;;;;;5071054;28;20624;-76
2021/10/21 09:43:02;;;;;;;6.30;1.10;;;16.20;1.00;;;;;;5066783;28;20489;-77
2021/10/21 09:45:34;;;;;;;4.90;1.37;;;16.30;1.00;;;;;;5063180;28;20487;-77
2021/10/21 09:48:02;;;;;;;3.63;1.10;;;16.50;1.00;;;;;;5071780;28;20507;-77
2021/10/21 09:50:34;;;;;;;6.90;1.60;;;16.50;1.00;;;;;;5065008;28;20465;-76
2021/10/21 09:53:10;;;;;;;4.90;1.20;;;16.50;1.00;;;;;;5072529;28;20523;-76
2021/10/21 09:55:38;;;;;;;4.40;0.90;;;16.60;1.00;;;;;;5066914;28;20456;-76
2021/10/21 09:58:06;;;;;;;5.00;1.57;;;16.50;1.00;;;;;;5070216;28;20544;-77
2021/10/21 10:00:35;;;;;;;10.60;1.30;;;16.50;1.00;;;;;;5071120;28;20459;-77
2021/10/21 10:03:16;;;;;;;4.87;1.40;;;16.50;1.00;;;;;;5074165;28;20491;-76
2021/10/21 10:05:49;;;;;;;4.40;0.80;;;16.50;1.00;;;;;;5073070;28;20504;-76
2021/10/21 10:08:16;;;;;;;5.10;1.30;;;16.50;1.00;;;;;;5072403;28;21309;-77
2021/10/21 10:10:45;;;;;;;6.10;1.83;;;16.40;1.00;;;;;;5072250;28;20507;-77
2021/10/21 10:13:13;;;;;;;7.50;1.50;;;16.20;1.00;;;;;;5071545;28;20456;-76
2021/10/21 10:15:44;;;;;;;5.80;1.80;;;16.00;1.00;;;;;;5071619;28;20673;-78
2021/10/21 10:18:15;;;;;;;12.10;1.87;;;15.90;1.00;;;;;;5073814;28;20468;-76
2021/10/21 10:20:45;;;;;;;7.97;1.60;;;16.00;1.00;;;;;;5068872;28;20455;-77
2021/10/21 10:23:13;;;;;;;5.70;1.10;;;15.90;1.00;;;;;;5071313;28;20859;-78
2021/10/21 10:25:45;;;;;;;8.33;1.40;;;15.90;1.00;;;;;;5068451;28;20528;-76
2021/10/21 10:28:12;;;;;;;2.80;1.13;;;15.90;1.00;;;;;;5075212;28;20452;-76
2021/10/21 10:30:48;;;;;;;10.70;1.43;;;16.00;1.00;;;;;;5072627;28;21836;-77
2021/10/21 10:33:30;;;;;;;4.63;1.10;;;16.10;1.00;;;;;;5071734;28;20449;-77
2021/10/21 10:36:27;;;;;;;3.17;1.33;;;16.10;1.00;;;;;;5070611;28;20456;-76
2021/10/21 10:38:56;;;;;;;11.53;1.67;;;16.00;1.00;;;;;;5067263;28;20665;-76
2021/10/21 10:41:47;;;;;;;3.23;0.97;;;15.70;1.00;;;;;;5070680;28;21008;-76
2021/10/21 10:45:01;;;;;;;5.37;1.27;;;15.40;1.00;;;;;;5082200;28;21127;-78
2021/10/21 10:47:49;;;;;;;4.00;1.57;;;15.30;1.00;;;;;;5044821;28;20448;-77
2021/10/21 10:50:35;;;;;;;6.20;1.00;;;15.50;1.00;;;;;;5073041;28;20452;-77
2021/10/21 10:53:06;;;;;;;6.67;1.20;;;15.60;1.00;;;;;;5064058;28;20452;-76
2021/10/21 10:55:39;;;;;;;3.50;1.00;;;15.70;1.00;;;;;;5071290;28;20471;-77
2021/10/21 10:58:07;;;;;;;3.17;0.83;;;15.80;1.00;;;;;;5071399;28;20452;-77
2021/10/21 11:00:51;;;;;;;2.13;0.90;;;15.50;1.00;;;;;;5068391;28;20527;-77
2021/10/21 11:03:38;;;;;;;8.43;1.53;;;15.10;1.00;;;;;;5073580;28;20538;-77
2021/10/21 11:06:05;;;;;;;5.77;1.27;;;14.40;1.00;;;;;;5066797;28;21732;-77
2021/10/21 11:08:52;;;;;;;3.00;1.07;;;13.70;1.00;;;;;;5071486;28;20458;-77
2021/10/21 11:11:39;;;;;;;4.33;1.20;;;13.20;1.00;;;;;;5069496;28;21948;-77
2021/10/21 11:14:06;;;;;;;3.60;1.13;;;13.00;1.00;;;;;;5069791;28;20528;-77
2021/10/21 11:16:41;;;;;;;5.30;1.13;;;13.00;1.00;;;;;;5069082;28;20469;-77
2021/10/21 11:19:11;;;;;;;1.40;0.50;;;12.90;1.00;;;;;;5069956;28;20837;-77
2021/10/21 11:21:49;;;;;;;3.07;1.00;;;12.70;1.00;;;;;;5075414;28;21100;-76
2021/10/21 11:24:49;;;;;;;2.30;0.80;;;12.50;1.00;;;;;;5077130;28;20471;-76
2021/10/21 11:27:17;;;;;;;2.03;0.70;;;12.30;1.00;;;;;;5076946;28;20578;-77
2021/10/21 11:29:47;;;;;;;2.30;0.60;;;12.20;1.00;;;;;;5074981;28;20622;-77
2021/10/21 11:32:15;;;;;;;2.90;0.77;;;12.20;1.00;;;;;;5081520;28;20584;-77
2021/10/21 11:34:43;;;;;;;2.10;0.87;;;12.30;1.00;;;;;;5072884;28;20459;-76
2021/10/21 11:37:09;;;;;;;2.73;0.67;;;12.50;1.00;;;;;;5068914;28;20467;-77
2021/10/21 11:39:38;;;;;;;1.57;0.50;;;12.60;1.00;;;;;;5074159;28;20438;-76
2021/10/21 11:42:05;;;;;;;1.93;0.60;;;12.60;1.00;;;;;;5067374;28;20474;-76
2021/10/21 11:44:32;;;;;;;1.60;0.67;;;12.60;1.00;;;;;;5070945;28;20474;-77
2021/10/21 11:47:00;;;;;;;1.10;0.50;;;12.50;1.00;;;;;;5070347;28;20487;-77
2021/10/21 11:49:26;;;;;;;2.70;0.60;;;12.50;1.00;;;;;;5072055;28;20454;-76
2021/10/21 11:52:04;;;;;;;2.10;0.80;;;12.30;1.00;;;;;;5077739;28;20526;-77
2021/10/21 11:54:31;;;;;;;2.53;1.20;;;12.20;1.00;;;;;;5078873;28;21174;-76
2021/10/21 11:56:58;;;;;;;1.47;0.70;;;12.30;1.00;;;;;;5084578;28;20448;-76
2021/10/21 11:59:35;;;;;;;1.63;1.03;;;12.50;1.00;;;;;;5074214;28;20445;-78
2021/10/21 12:02:10;;;;;;;2.13;0.70;;;12.60;1.00;;;;;;5069721;28;20459;-77
2021/10/21 12:04:37;;;;;;;1.77;0.90;;;13.00;1.00;;;;;;5071855;28;20551;-76
2021/10/21 12:07:06;;;;;;;2.10;1.07;;;13.30;1.00;;;;;;5074694;28;20550;-77
2021/10/21 12:09:34;;;;;;;2.90;1.00;;;13.50;1.00;;;;;;5087952;28;20411;-75
2021/10/21 12:12:02;;;;;;;1.97;0.87;;;13.50;1.00;;;;;;5067658;28;20426;-76
2021/10/21 12:14:29;;;;;;;2.47;0.90;;;13.30;1.00;;;;;;5069249;28;21552;-76
2021/10/21 12:16:57;;;;;;;1.70;0.70;;;13.20;1.00;;;;;;5068517;28;21570;-77
2021/10/21 12:19:24;;;;;;;5.03;0.90;;;13.30;1.00;;;;;;5074467;28;20455;-77
2021/10/21 12:21:52;;;;;;;1.97;1.00;;;13.60;1.00;;;;;;5072438;28;20463;-76
2021/10/21 12:24:22;;;;;;;3.30;1.00;;;14.00;1.00;;;;;;5071047;28;20448;-76
2021/10/21 12:26:56;;;;;;;2.70;1.00;;;14.00;1.00;;;;;;5077271;28;21233;-76
2021/10/21 12:29:24;;;;;;;5.30;0.97;;;13.90;1.00;;;;;;5084043;28;20432;-76
2021/10/21 12:31:51;;;;;;;7.07;1.37;;;13.80;1.00;;;;;;5074050;28;20411;-77
2021/10/21 12:34:25;;;;;;;2.17;1.17;;;13.70;1.00;;;;;;5072163;28;20462;-76
2021/10/21 12:36:53;;;;;;;4.47;1.20;;;13.50;1.00;;;;;;5072685;28;20463;-78
2021/10/21 12:39:27;;;;;;;3.67;1.27;;;13.50;1.00;;;;;;5064815;28;20950;-78
2021/10/21 12:41:56;;;;;;;3.10;1.10;;;13.50;1.00;;;;;;5066525;28;20440;-77
2021/10/21 12:44:24;;;;;;;2.43;1.20;;;13.50;1.00;;;;;;5068342;28;20466;-77
2021/10/21 12:47:06;;;;;;;2.77;0.90;;;13.50;1.00;;;;;;5067293;28;20578;-77
2021/10/21 12:49:32;;;;;;;3.73;1.10;;;13.50;1.00;;;;;;5073374;28;21339;-77
2021/10/21 12:52:06;;;;;;;3.00;1.17;;;13.50;1.00;;;;;;5064064;28;21465;-76
2021/10/21 12:54:36;;;;;;;2.07;0.80;;;13.60;1.00;;;;;;5071076;28;21198;-77
2021/10/21 12:57:03;;;;;;;2.80;0.80;;;13.60;1.00;;;;;;5065915;28;20446;-76
2021/10/21 12:59:30;;;;;;;3.13;1.60;;;13.50;1.00;;;;;;5071142;28;20490;-78
2021/10/21 13:02:01;;;;;;;5.80;1.23;;;13.60;1.00;;;;;;5068500;28;20889;-77
2021/10/21 13:04:45;;;;;;;3.80;1.17;;;13.90;1.00;;;;;;5068494;28;20469;-77
2021/10/21 13:07:13;;;;;;;4.77;1.10;;;14.60;1.00;;;;;;5069064;28;20474;-77
2021/10/21 13:09:42;;;;;;;4.30;1.17;;;15.20;1.00;;;;;;5065315;28;20439;-77